Terminal Aerodrome Forecast
Issued by NWS

Home | Current Version | Previous Version | Text Only | Print | Product List | Glossary On
Versions: 1 2 3 4 5 6 7 8 9 10 11 12 13 14 15 16 17 18 19 20 21 22
000
FTUS45 KTFX 242336
TAFGTF
TAF
KGTF 242336Z 2500/2524 VRB06KT P6SM VCSH SCT060 BKN080
     FM250300 02006KT 6SM -SHRA BKN030 OVC070
     FM250800 01008KT 4SM -SHRASN BR BKN010 OVC020
     FM251400 32008KT P6SM -SHRA SCT008 OVC020
     FM252000 05005KT P6SM BKN025 PROB30 2521/2524 4SM -SHRA OVC015=

USA.gov is the U.S. government's official web portal to all federal, state and local government web resources and services.